Time;durP1;ratioP1;P1;durP2;ratioP2;P2;SDS_P1;SDS_P2;PMS_P1;PMS_P2;Temp;Humidity;BMP_temperature;BMP_pressure;BME280_temperature;BME280_humidity;BME280_pressure;Samples;Min_cycle;Max_cycle;Signal;HPM_P1;HPM_P2
2023/12/14 00:01:33;;;;;;;9.32;5.63;;;5.60;99.90;;;;;;4890930;29;20103;-72
2023/12/14 00:03:59;;;;;;;6.22;4.60;;;5.60;99.90;;;;;;4896738;29;20036;-72
2023/12/14 00:06:25;;;;;;;7.15;4.82;;;5.40;99.90;;;;;;4894669;29;20044;-72
2023/12/14 00:08:50;;;;;;;6.50;4.85;;;5.50;99.90;;;;;;4897480;29;20055;-73
2023/12/14 00:11:16;;;;;;;6.00;3.78;;;5.50;99.90;;;;;;4897659;29;20419;-73
2023/12/14 00:13:42;;;;;;;5.75;3.63;;;5.60;99.90;;;;;;4898609;29;20151;-72
2023/12/14 00:16:08;;;;;;;4.82;3.30;;;5.50;99.90;;;;;;4897134;29;20035;-73
2023/12/14 00:18:34;;;;;;;6.15;4.25;;;5.60;99.90;;;;;;4900699;29;20052;-72
2023/12/14 00:20:59;;;;;;;7.43;3.63;;;5.70;99.90;;;;;;4899272;29;20040;-73
2023/12/14 00:23:25;;;;;;;6.00;3.97;;;5.80;99.90;;;;;;4900752;29;20039;-73
2023/12/14 00:25:51;;;;;;;7.18;3.92;;;5.80;99.90;;;;;;4900496;29;20095;-72
2023/12/14 00:28:16;;;;;;;6.03;3.95;;;5.70;99.90;;;;;;4900277;29;20068;-74
2023/12/14 00:30:42;;;;;;;7.38;4.22;;;5.80;99.90;;;;;;4900117;29;20043;-72
2023/12/14 00:33:08;;;;;;;7.75;5.05;;;5.90;99.90;;;;;;4901284;29;20040;-73
2023/12/14 00:35:34;;;;;;;5.70;4.13;;;5.90;99.90;;;;;;4899350;29;20504;-73
2023/12/14 00:37:59;;;;;;;6.65;4.63;;;5.90;99.90;;;;;;4899290;29;20059;-72
2023/12/14 00:40:26;;;;;;;6.32;4.50;;;5.80;99.90;;;;;;4901012;29;20036;-74
2023/12/14 00:42:51;;;;;;;7.15;4.90;;;5.90;99.90;;;;;;4899866;29;20506;-73
2023/12/14 00:45:17;;;;;;;6.53;5.07;;;5.80;99.90;;;;;;4899728;29;20047;-73
2023/12/14 00:47:43;;;;;;;8.32;5.60;;;5.80;99.90;;;;;;4901585;29;20032;-73
2023/12/14 00:50:08;;;;;;;7.57;5.10;;;5.90;99.90;;;;;;4899121;29;20108;-72
2023/12/14 00:52:34;;;;;;;10.57;6.57;;;5.90;99.90;;;;;;4899070;29;20048;-74
2023/12/14 00:55:00;;;;;;;8.63;6.35;;;5.80;99.90;;;;;;4899975;29;20395;-73
2023/12/14 00:57:26;;;;;;;8.95;5.95;;;5.70;99.90;;;;;;4898173;29;20136;-72
2023/12/14 00:59:52;;;;;;;9.27;6.47;;;5.80;99.90;;;;;;4899795;29;20036;-72
2023/12/14 01:02:17;;;;;;;8.43;6.22;;;5.80;99.90;;;;;;4899684;29;20517;-73
2023/12/14 01:04:43;;;;;;;8.13;6.13;;;5.70;99.90;;;;;;4898258;29;20036;-73
2023/12/14 01:07:09;;;;;;;8.38;6.25;;;5.50;99.90;;;;;;4897135;29;20131;-72
2023/12/14 01:09:35;;;;;;;9.73;6.57;;;5.50;99.90;;;;;;4900080;29;20043;-73
2023/12/14 01:12:00;;;;;;;8.13;6.20;;;5.50;99.90;;;;;;4896641;29;20024;-73
2023/12/14 01:14:26;;;;;;;9.10;6.72;;;5.40;99.90;;;;;;4899361;29;20052;-72
2023/12/14 01:16:52;;;;;;;9.48;6.20;;;5.40;99.90;;;;;;4898875;29;20048;-72
2023/12/14 01:19:18;;;;;;;8.43;6.13;;;5.40;99.90;;;;;;4899082;29;20066;-73
2023/12/14 01:21:43;;;;;;;8.48;6.55;;;5.30;99.90;;;;;;4899292;29;20028;-73
2023/12/14 01:24:09;;;;;;;7.13;5.75;;;5.30;99.90;;;;;;4898318;29;20117;-72
2023/12/14 01:26:35;;;;;;;6.57;4.75;;;5.30;99.90;;;;;;4897716;29;20043;-72
2023/12/14 01:29:00;;;;;;;8.43;5.05;;;5.40;99.90;;;;;;4898286;29;20395;-73
2023/12/14 01:31:26;;;;;;;8.27;5.63;;;5.40;99.90;;;;;;4897869;29;20486;-73
2023/12/14 01:33:52;;;;;;;8.38;5.30;;;5.40;99.90;;;;;;4897507;29;20509;-72
2023/12/14 01:36:25;;;;;;;6.97;5.00;;;5.40;99.90;;;;;;4900936;29;20032;-72
2023/12/14 01:38:51;;;;;;;7.22;5.03;;;5.30;99.90;;;;;;4899461;29;20040;-72
2023/12/14 01:41:17;;;;;;;9.02;5.47;;;5.30;99.90;;;;;;4896938;29;20720;-72
2023/12/14 01:43:42;;;;;;;8.18;5.82;;;5.30;99.90;;;;;;4898017;29;20040;-74
2023/12/14 01:46:08;;;;;;;7.93;6.07;;;5.40;99.90;;;;;;4897390;29;20414;-72
2023/12/14 01:48:34;;;;;;;7.90;5.82;;;5.20;99.90;;;;;;4898156;29;20262;-72
2023/12/14 01:51:00;;;;;;;7.57;5.20;;;5.30;99.90;;;;;;4897847;29;20048;-72
2023/12/14 01:53:26;;;;;;;7.97;5.40;;;5.40;99.90;;;;;;4895730;29;20055;-73
2023/12/14 01:55:51;;;;;;;6.63;5.00;;;5.40;99.90;;;;;;4895692;29;20029;-73
2023/12/14 01:58:17;;;;;;;6.90;5.65;;;5.40;99.90;;;;;;4896733;29;20092;-73
2023/12/14 02:00:45;;;;;;;7.78;5.50;;;5.50;99.90;;;;;;4896720;29;20040;-72
2023/12/14 02:03:11;;;;;;;8.25;6.53;;;5.40;99.90;;;;;;4896244;29;20080;-72
2023/12/14 02:05:37;;;;;;;8.43;6.22;;;5.60;99.90;;;;;;4898497;29;20130;-72
2023/12/14 02:08:02;;;;;;;6.97;5.28;;;5.50;99.90;;;;;;4899023;29;20036;-73
2023/12/14 02:10:28;;;;;;;7.35;5.18;;;5.50;99.90;;;;;;4896399;29;20131;-73
2023/12/14 02:12:54;;;;;;;7.30;4.88;;;5.60;99.90;;;;;;4897261;29;20123;-72
2023/12/14 02:15:20;;;;;;;7.93;5.68;;;5.60;99.90;;;;;;4899082;29;20162;-73
2023/12/14 02:17:46;;;;;;;7.22;5.18;;;5.60;99.90;;;;;;4897713;29;20510;-72
2023/12/14 02:20:11;;;;;;;7.85;6.10;;;5.60;99.90;;;;;;4899357;29;20056;-73
2023/12/14 02:22:54;;;;;;;9.57;6.47;;;5.60;99.90;;;;;;4898406;29;20124;-72
2023/12/14 02:25:20;;;;;;;8.63;6.05;;;5.60;99.90;;;;;;4898275;29;20067;-72
2023/12/14 02:27:47;;;;;;;10.05;6.20;;;5.60;99.90;;;;;;4897471;29;20079;-73
2023/12/14 02:30:13;;;;;;;9.70;6.50;;;5.70;99.90;;;;;;4897432;29;20408;-73
2023/12/14 02:32:39;;;;;;;8.13;5.95;;;5.60;99.90;;;;;;4897105;29;20067;-73
2023/12/14 02:35:06;;;;;;;8.90;6.45;;;5.70;99.90;;;;;;4897030;29;20040;-73
2023/12/14 02:37:33;;;;;;;9.95;6.97;;;5.70;99.90;;;;;;4895786;29;20040;-74
2023/12/14 02:39:59;;;;;;;8.63;6.55;;;5.60;99.90;;;;;;4897386;29;20051;-72
2023/12/14 02:42:25;;;;;;;8.20;6.53;;;5.60;99.90;;;;;;4895832;29;20046;-73
2023/12/14 02:44:50;;;;;;;9.55;6.15;;;5.60;99.90;;;;;;4898984;29;20028;-74
2023/12/14 02:47:16;;;;;;;9.25;6.43;;;5.60;99.90;;;;;;4898007;29;20087;-72
2023/12/14 02:49:43;;;;;;;8.27;6.18;;;5.70;99.90;;;;;;4897386;29;20079;-72
2023/12/14 02:52:09;;;;;;;8.73;6.57;;;5.70;99.90;;;;;;4897691;29;20036;-73
2023/12/14 02:54:38;;;;;;;7.88;6.03;;;5.70;99.90;;;;;;4898525;29;20419;-74
2023/12/14 02:57:04;;;;;;;8.25;5.70;;;5.70;99.90;;;;;;4896942;29;20029;-73
2023/12/14 02:59:29;;;;;;;7.90;6.05;;;5.80;99.90;;;;;;4896763;29;20027;-72
2023/12/14 03:01:55;;;;;;;9.43;6.30;;;5.80;99.90;;;;;;4897634;29;20039;-74
2023/12/14 03:04:21;;;;;;;8.40;5.53;;;5.70;99.90;;;;;;4897516;29;21271;-72
2023/12/14 03:06:46;;;;;;;8.45;5.75;;;5.70;99.90;;;;;;4896569;29;20555;-73
2023/12/14 03:09:12;;;;;;;9.00;5.10;;;5.70;99.90;;;;;;4896151;29;20028;-72
2023/12/14 03:11:38;;;;;;;9.05;5.80;;;5.60;99.90;;;;;;4896728;29;20040;-72
2023/12/14 03:14:03;;;;;;;9.68;6.55;;;5.60;99.90;;;;;;4896882;29;21123;-74
2023/12/14 03:16:29;;;;;;;7.35;5.85;;;5.60;99.90;;;;;;4898408;29;20036;-75
2023/12/14 03:18:56;;;;;;;7.93;5.95;;;5.60;99.90;;;;;;4896594;29;20064;-72
2023/12/14 03:21:22;;;;;;;8.07;6.05;;;5.60;99.90;;;;;;4898226;29;20032;-72
2023/12/14 03:23:48;;;;;;;9.68;5.78;;;5.60;99.90;;;;;;4896426;29;20123;-72
2023/12/14 03:26:13;;;;;;;8.02;5.88;;;5.50;99.90;;;;;;4896454;29;20038;-72
2023/12/14 03:28:39;;;;;;;7.25;5.80;;;5.50;99.90;;;;;;4897538;29;20088;-71
2023/12/14 03:31:05;;;;;;;7.95;5.43;;;5.60;99.90;;;;;;4900383;29;20028;-72
2023/12/14 03:33:30;;;;;;;10.15;6.82;;;5.60;99.90;;;;;;4901326;29;20063;-71
2023/12/14 03:35:56;;;;;;;7.47;5.43;;;5.60;99.90;;;;;;4900735;29;20090;-72
2023/12/14 03:38:22;;;;;;;8.95;5.50;;;5.60;99.90;;;;;;4899413;29;20033;-73
2023/12/14 03:40:48;;;;;;;8.15;6.07;;;5.60;99.90;;;;;;4901264;29;20114;-73
2023/12/14 03:43:14;;;;;;;7.57;5.40;;;5.60;99.90;;;;;;4901686;29;20040;-73
2023/12/14 03:45:39;;;;;;;7.38;5.32;;;5.60;99.90;;;;;;4900868;29;20058;-72
2023/12/14 03:48:05;;;;;;;8.70;6.30;;;5.50;99.90;;;;;;4899313;29;20118;-73
2023/12/14 03:50:32;;;;;;;9.55;5.68;;;5.50;99.90;;;;;;4901688;29;20071;-74
2023/12/14 03:52:58;;;;;;;7.28;5.07;;;5.50;99.90;;;;;;4900661;29;20064;-73
2023/12/14 03:55:24;;;;;;;7.70;5.05;;;5.60;99.90;;;;;;4899551;29;20028;-72
2023/12/14 03:57:50;;;;;;;7.40;5.25;;;5.50;99.90;;;;;;4900656;29;20040;-73
2023/12/14 04:00:16;;;;;;;8.02;4.72;;;5.50;99.90;;;;;;4898521;29;20032;-72
2023/12/14 04:02:42;;;;;;;7.18;5.15;;;5.60;99.90;;;;;;4897202;29;20035;-74
2023/12/14 04:05:10;;;;;;;7.45;5.65;;;5.50;99.90;;;;;;4896613;29;20071;-73
2023/12/14 04:07:40;;;;;;;9.27;5.70;;;5.50;99.90;;;;;;4896776;29;20103;-72
2023/12/14 04:10:13;;;;;;;7.40;5.63;;;5.60;99.90;;;;;;4877271;29;20603;-72
2023/12/14 04:12:39;;;;;;;9.05;5.50;;;5.60;99.90;;;;;;4896060;29;20052;-75
2023/12/14 04:15:06;;;;;;;7.72;5.25;;;5.60;99.90;;;;;;4897064;29;20083;-72
2023/12/14 04:17:33;;;;;;;8.80;5.80;;;5.60;99.90;;;;;;4892600;29;20138;-73
2023/12/14 04:19:59;;;;;;;8.45;5.60;;;5.50;99.90;;;;;;4892273;29;20411;-71
2023/12/14 04:22:25;;;;;;;8.70;5.95;;;5.50;99.90;;;;;;4893044;29;20575;-72
2023/12/14 04:24:51;;;;;;;5.90;4.60;;;5.40;99.90;;;;;;4894040;29;20043;-73
2023/12/14 04:27:17;;;;;;;7.57;5.05;;;5.50;99.90;;;;;;4892572;29;20032;-71
2023/12/14 04:29:43;;;;;;;8.70;5.85;;;5.50;99.90;;;;;;4893523;29;20032;-72
2023/12/14 04:32:08;;;;;;;8.40;6.03;;;5.40;99.90;;;;;;4891422;29;20139;-72
2023/12/14 04:34:34;;;;;;;11.40;6.15;;;5.30;99.90;;;;;;4891750;29;20132;-73
2023/12/14 04:37:00;;;;;;;8.90;6.20;;;5.40;99.90;;;;;;4894117;29;20043;-72
2023/12/14 04:39:26;;;;;;;8.40;6.50;;;5.30;99.90;;;;;;4895646;29;20175;-72
2023/12/14 04:41:52;;;;;;;8.70;6.50;;;5.30;99.90;;;;;;4894381;29;20043;-74
2023/12/14 04:44:19;;;;;;;7.85;5.72;;;5.30;99.90;;;;;;4896058;29;20044;-73
2023/12/14 04:46:44;;;;;;;8.85;6.13;;;5.30;99.90;;;;;;4895853;29;20095;-71
2023/12/14 04:49:10;;;;;;;9.98;7.05;;;5.30;99.90;;;;;;4896404;29;20535;-72
2023/12/14 04:51:36;;;;;;;7.00;5.53;;;5.20;99.90;;;;;;4895750;29;20094;-72
2023/12/14 04:54:02;;;;;;;8.02;5.88;;;5.10;99.90;;;;;;4893427;29;20048;-73
2023/12/14 04:56:28;;;;;;;8.18;5.82;;;5.10;99.90;;;;;;4896187;29;20044;-71
2023/12/14 04:58:54;;;;;;;8.13;5.75;;;4.90;99.90;;;;;;4895822;29;20051;-73
2023/12/14 05:01:19;;;;;;;7.43;4.82;;;4.40;99.90;;;;;;4891168;29;20037;-73
2023/12/14 05:03:45;;;;;;;7.47;5.38;;;4.40;99.90;;;;;;4892904;29;20063;-73
2023/12/14 05:06:11;;;;;;;7.38;4.88;;;4.30;99.90;;;;;;4892020;29;20038;-72
2023/12/14 05:08:36;;;;;;;6.85;4.63;;;4.30;99.90;;;;;;4893005;29;20119;-71
2023/12/14 05:11:03;;;;;;;6.40;4.57;;;4.30;99.90;;;;;;4890475;29;20035;-72
2023/12/14 05:13:29;;;;;;;7.68;5.28;;;4.40;99.90;;;;;;4891742;29;20459;-72
2023/12/14 05:15:55;;;;;;;9.15;5.40;;;4.50;99.90;;;;;;4892283;29;20044;-72
2023/12/14 05:18:20;;;;;;;7.93;5.50;;;4.60;99.90;;;;;;4892787;29;20054;-73
2023/12/14 05:20:46;;;;;;;7.93;5.43;;;4.70;99.90;;;;;;4893786;29;20044;-73
2023/12/14 05:23:12;;;;;;;7.90;4.93;;;4.70;99.90;;;;;;4891880;29;20047;-72
2023/12/14 05:25:38;;;;;;;7.63;4.88;;;4.70;99.90;;;;;;4891817;29;20039;-73
2023/12/14 05:28:04;;;;;;;6.78;5.05;;;4.60;99.90;;;;;;4892583;29;20502;-73
2023/12/14 05:30:30;;;;;;;7.97;5.65;;;4.60;99.90;;;;;;4892986;29;20099;-73
2023/12/14 05:32:56;;;;;;;7.88;5.70;;;4.60;99.90;;;;;;4891251;29;20120;-74
2023/12/14 05:35:21;;;;;;;7.75;5.18;;;4.60;99.90;;;;;;4894048;29;20358;-73
2023/12/14 05:37:47;;;;;;;8.35;6.28;;;4.60;99.90;;;;;;4891797;29;20486;-73
2023/12/14 05:40:13;;;;;;;7.80;4.60;;;4.60;99.90;;;;;;4891979;29;20083;-73
2023/12/14 05:42:39;;;;;;;6.13;4.32;;;4.40;99.90;;;;;;4892243;29;20518;-73
2023/12/14 05:45:06;;;;;;;6.38;4.00;;;4.40;99.90;;;;;;4891632;29;20081;-73
2023/12/14 05:47:34;;;;;;;5.50;4.03;;;4.20;99.90;;;;;;4892598;29;20036;-73
2023/12/14 05:50:00;;;;;;;10.93;4.40;;;4.00;99.90;;;;;;4893491;29;20530;-72
2023/12/14 05:52:25;;;;;;;6.38;4.50;;;4.00;99.90;;;;;;4891135;29;20136;-73
2023/12/14 05:54:51;;;;;;;6.22;4.05;;;4.00;99.90;;;;;;4891418;29;20048;-72
2023/12/14 05:57:17;;;;;;;6.03;4.07;;;4.00;99.90;;;;;;4893903;29;20103;-74
2023/12/14 05:59:42;;;;;;;6.38;4.43;;;4.10;99.90;;;;;;4892229;29;20118;-74
2023/12/14 06:02:08;;;;;;;7.43;4.57;;;4.10;99.90;;;;;;4890551;29;20024;-73
2023/12/14 06:04:34;;;;;;;7.13;5.18;;;4.10;99.90;;;;;;4893533;29;20106;-73
2023/12/14 06:06:59;;;;;;;6.88;4.65;;;4.40;99.90;;;;;;4892063;29;20032;-72
2023/12/14 06:09:33;;;;;;;7.50;5.03;;;4.40;99.90;;;;;;4891296;29;20131;-72
2023/12/14 06:12:00;;;;;;;7.50;4.47;;;4.20;99.90;;;;;;4891118;29;20127;-73
2023/12/14 06:14:26;;;;;;;8.63;4.43;;;4.10;99.90;;;;;;4891615;29;20036;-73
2023/12/14 06:16:52;;;;;;;8.98;6.38;;;4.00;99.90;;;;;;4891309;29;20032;-72
2023/12/14 06:19:17;;;;;;;6.97;4.93;;;4.10;99.90;;;;;;4889441;29;20057;-73
2023/12/14 06:21:43;;;;;;;7.65;5.18;;;4.20;99.90;;;;;;4892899;29;20444;-73
2023/12/14 06:24:08;;;;;;;7.72;4.95;;;4.20;99.90;;;;;;4891611;29;20032;-73
2023/12/14 06:26:34;;;;;;;6.25;3.97;;;4.20;99.90;;;;;;4891527;29;20082;-74
2023/12/14 06:29:00;;;;;;;13.90;12.50;;;4.10;99.90;;;;;;4892454;29;20043;-73
2023/12/14 06:31:25;;;;;;;9.18;7.15;;;4.10;99.90;;;;;;4891384;29;20071;-73
2023/12/14 06:33:51;;;;;;;6.15;4.70;;;4.10;99.90;;;;;;4892188;29;20391;-73
2023/12/14 06:36:20;;;;;;;5.53;3.97;;;3.80;99.90;;;;;;4889744;29;20032;-73
2023/12/14 06:38:45;;;;;;;6.30;4.28;;;3.70;99.90;;;;;;4890791;29;20880;-73
2023/12/14 06:41:25;;;;;;;7.13;4.80;;;3.70;99.90;;;;;;4890824;29;20028;-74
2023/12/14 06:43:51;;;;;;;6.55;4.22;;;3.80;99.90;;;;;;4891792;29;20036;-74
2023/12/14 06:46:18;;;;;;;7.15;4.88;;;3.70;99.90;;;;;;4890994;29;20067;-73
2023/12/14 06:48:44;;;;;;;7.75;5.05;;;3.70;99.90;;;;;;4888960;29;20055;-73
2023/12/14 06:51:09;;;;;;;7.90;5.55;;;3.80;99.90;;;;;;4892665;29;20040;-75
2023/12/14 06:53:37;;;;;;;8.38;6.13;;;4.00;99.90;;;;;;4892884;29;20048;-76
2023/12/14 06:56:03;;;;;;;9.38;5.65;;;4.10;99.90;;;;;;4890049;29;20032;-74
2023/12/14 06:58:29;;;;;;;9.23;6.10;;;4.30;99.90;;;;;;4888599;29;20047;-75
2023/12/14 07:00:55;;;;;;;8.23;5.00;;;4.20;99.90;;;;;;4884355;29;20459;-76
2023/12/14 07:03:20;;;;;;;6.88;4.22;;;3.90;99.90;;;;;;4886157;29;20641;-75
2023/12/14 07:05:46;;;;;;;5.72;4.05;;;3.90;99.90;;;;;;4890272;29;20024;-75
2023/12/14 07:08:12;;;;;;;6.32;4.15;;;3.80;99.90;;;;;;4890141;29;20043;-74
2023/12/14 07:10:38;;;;;;;5.60;4.20;;;3.60;99.90;;;;;;4890150;29;20132;-76
2023/12/14 07:13:04;;;;;;;7.82;4.82;;;3.50;99.90;;;;;;4892247;29;20040;-75
2023/12/14 07:15:29;;;;;;;5.75;4.13;;;5.00;99.90;;;;;;4890551;29;20134;-75
2023/12/14 07:17:55;;;;;;;8.02;5.30;;;6.50;99.90;;;;;;4890743;29;20122;-74
2023/12/14 07:20:21;;;;;;;6.20;4.30;;;5.00;99.90;;;;;;4890657;29;20028;-75
2023/12/14 07:22:47;;;;;;;7.88;4.57;;;4.60;99.90;;;;;;4890133;29;20025;-75
2023/12/14 07:25:13;;;;;;;7.78;5.95;;;4.40;99.90;;;;;;4887540;29;20083;-76
2023/12/14 07:27:38;;;;;;;9.68;6.75;;;4.50;99.90;;;;;;4889795;29;20036;-76
2023/12/14 07:30:05;;;;;;;7.35;5.20;;;4.70;99.90;;;;;;4889440;29;20040;-75
2023/12/14 07:32:30;;;;;;;7.82;5.55;;;4.70;99.90;;;;;;4889116;29;20159;-74
2023/12/14 07:34:56;;;;;;;9.35;5.82;;;4.70;99.90;;;;;;4892188;29;20036;-75
2023/12/14 07:37:22;;;;;;;6.72;4.25;;;4.70;99.90;;;;;;4890796;29;20115;-75
2023/12/14 07:39:47;;;;;;;6.93;4.95;;;4.70;99.90;;;;;;4890410;29;20060;-74
2023/12/14 07:42:19;;;;;;;10.68;5.03;;;4.70;99.90;;;;;;4891859;29;20499;-75
2023/12/14 07:44:45;;;;;;;7.80;5.20;;;4.80;99.90;;;;;;4891603;29;20032;-75
2023/12/14 07:47:10;;;;;;;7.20;5.05;;;4.50;99.90;;;;;;4889917;29;20431;-74
2023/12/14 07:49:36;;;;;;;7.40;4.55;;;4.50;99.90;;;;;;4889776;29;20057;-75
2023/12/14 07:52:02;;;;;;;9.30;5.93;;;4.40;99.90;;;;;;4891623;29;20043;-74
2023/12/14 07:54:28;;;;;;;10.23;6.35;;;4.40;99.90;;;;;;4890497;29;20054;-75
2023/12/14 07:56:53;;;;;;;8.70;5.80;;;4.40;99.90;;;;;;4892946;29;20055;-75
2023/12/14 07:59:19;;;;;;;7.90;5.68;;;4.50;99.90;;;;;;4893928;29;20044;-75
2023/12/14 08:01:45;;;;;;;8.90;5.50;;;4.50;99.90;;;;;;4891141;29;20114;-75
2023/12/14 08:04:11;;;;;;;8.45;5.93;;;4.50;99.90;;;;;;4891528;29;20034;-74
2023/12/14 08:06:39;;;;;;;9.43;6.10;;;4.40;99.90;;;;;;4891673;29;21376;-75
2023/12/14 08:09:05;;;;;;;9.77;6.00;;;4.40;99.90;;;;;;4890579;29;20039;-76
2023/12/14 08:11:32;;;;;;;10.68;7.60;;;4.40;99.90;;;;;;4891821;29;20032;-75
2023/12/14 08:13:58;;;;;;;11.38;7.53;;;4.40;99.90;;;;;;4895655;29;20047;-74
2023/12/14 08:16:23;;;;;;;12.30;8.23;;;4.30;99.90;;;;;;4896856;29;20043;-75
2023/12/14 08:18:49;;;;;;;11.02;7.65;;;4.30;99.90;;;;;;4896683;29;20636;-74
2023/12/14 08:21:15;;;;;;;9.93;7.13;;;4.50;99.90;;;;;;4897945;29;20059;-75
2023/12/14 08:23:42;;;;;;;10.52;7.18;;;4.40;99.90;;;;;;4895668;29;20594;-74
2023/12/14 08:26:09;;;;;;;10.15;7.35;;;4.40;99.90;;;;;;4896253;29;20109;-75
2023/12/14 08:28:35;;;;;;;9.93;6.95;;;4.50;99.90;;;;;;4892790;29;20099;-75
2023/12/14 08:31:02;;;;;;;10.07;6.40;;;4.40;99.90;;;;;;4887048;29;20064;-73
2023/12/14 08:33:28;;;;;;;9.30;6.53;;;4.40;99.90;;;;;;4897446;29;20040;-73
2023/12/14 08:35:55;;;;;;;8.52;6.28;;;4.50;99.90;;;;;;4894773;29;20039;-73
2023/12/14 08:38:20;;;;;;;8.18;6.03;;;4.40;99.90;;;;;;4897534;29;20044;-73
2023/12/14 08:40:46;;;;;;;9.75;6.63;;;4.40;99.90;;;;;;4894523;29;20032;-74
2023/12/14 08:43:12;;;;;;;9.63;6.40;;;4.40;99.90;;;;;;4891427;29;20044;-73
2023/12/14 08:45:38;;;;;;;8.75;5.68;;;4.40;99.90;;;;;;4896507;29;20115;-73
2023/12/14 08:48:07;;;;;;;7.93;5.97;;;4.20;99.90;;;;;;4895225;29;20481;-74
2023/12/14 08:50:33;;;;;;;8.38;5.78;;;4.20;99.90;;;;;;4880097;29;20058;-75
2023/12/14 08:52:59;;;;;;;8.95;6.07;;;4.20;99.90;;;;;;4897981;29;20476;-75
2023/12/14 08:55:25;;;;;;;8.75;6.57;;;4.20;99.90;;;;;;4898686;29;20467;-75
2023/12/14 08:57:51;;;;;;;7.20;4.70;;;4.30;99.90;;;;;;4896007;29;20675;-74
2023/12/14 09:00:18;;;;;;;8.40;5.10;;;4.30;99.90;;;;;;4887228;29;20056;-75
2023/12/14 09:02:45;;;;;;;7.20;4.63;;;4.40;99.90;;;;;;4893764;29;20124;-75
2023/12/14 09:05:12;;;;;;;7.60;4.18;;;4.40;99.90;;;;;;4897480;29;20127;-76
2023/12/14 09:07:38;;;;;;;9.05;5.07;;;4.50;99.90;;;;;;4893182;29;20509;-75
2023/12/14 09:10:04;;;;;;;7.07;4.78;;;4.50;99.90;;;;;;4895505;29;20036;-76
2023/12/14 09:12:30;;;;;;;6.00;3.72;;;4.50;99.90;;;;;;4893368;29;20092;-75
2023/12/14 09:14:55;;;;;;;5.45;3.53;;;4.50;99.90;;;;;;4890304;29;20115;-76
2023/12/14 09:17:21;;;;;;;6.38;3.97;;;4.60;99.90;;;;;;4893344;29;20028;-75
2023/12/14 09:19:47;;;;;;;6.32;3.70;;;4.50;99.90;;;;;;4892964;29;20056;-74
2023/12/14 09:22:13;;;;;;;5.57;3.80;;;4.40;99.90;;;;;;4893635;29;20131;-75
2023/12/14 09:24:38;;;;;;;6.53;4.15;;;4.60;99.90;;;;;;4893043;29;20040;-74
2023/12/14 09:27:04;;;;;;;6.43;3.53;;;4.70;99.90;;;;;;4891910;29;20175;-76
2023/12/14 09:29:30;;;;;;;5.97;3.53;;;4.70;99.90;;;;;;4893422;29;20096;-75
2023/12/14 09:31:57;;;;;;;6.10;3.25;;;4.70;99.90;;;;;;4892808;29;20037;-77
2023/12/14 09:34:24;;;;;;;5.97;3.30;;;4.60;99.90;;;;;;4877721;29;20059;-72
2023/12/14 09:36:49;;;;;;;5.55;3.58;;;4.50;99.90;;;;;;4894277;29;20040;-74
2023/12/14 09:39:15;;;;;;;6.35;3.88;;;4.50;99.90;;;;;;4896421;29;20032;-74
2023/12/14 09:41:41;;;;;;;5.75;3.70;;;4.60;99.90;;;;;;4897994;29;20557;-75
2023/12/14 09:44:07;;;;;;;7.50;4.00;;;4.60;99.90;;;;;;4896050;29;20067;-73
2023/12/14 09:46:37;;;;;;;5.82;3.50;;;4.40;99.90;;;;;;4895749;29;20383;-72
2023/12/14 09:49:04;;;;;;;5.13;3.53;;;4.50;99.90;;;;;;4896079;29;20936;-73
2023/12/14 09:51:30;;;;;;;5.70;3.30;;;4.50;99.90;;;;;;4895234;29;20063;-74
2023/12/14 09:54:00;;;;;;;7.22;3.45;;;4.70;99.90;;;;;;4895121;29;20048;-75
2023/12/14 09:56:26;;;;;;;5.55;3.50;;;4.70;99.90;;;;;;4893028;29;20047;-74
2023/12/14 09:58:52;;;;;;;6.00;3.45;;;4.50;99.90;;;;;;4895113;29;20032;-75
2023/12/14 10:01:35;;;;;;;7.35;3.42;;;4.50;99.90;;;;;;4894290;29;20442;-75
2023/12/14 10:04:20;;;;;;;6.25;3.13;;;4.50;99.90;;;;;;4890607;29;20036;-75
2023/12/14 10:06:47;;;;;;;5.93;2.95;;;4.40;99.90;;;;;;4889626;29;20059;-75
2023/12/14 10:09:15;;;;;;;7.55;4.20;;;4.30;99.90;;;;;;4894020;29;21409;-75
2023/12/14 10:11:42;;;;;;;4.88;2.90;;;4.30;99.90;;;;;;4893173;29;20131;-74
2023/12/14 10:14:25;;;;;;;5.40;3.28;;;4.20;99.90;;;;;;4894150;29;20043;-74
2023/12/14 10:16:51;;;;;;;5.32;3.58;;;4.20;99.90;;;;;;4892566;29;20604;-75
2023/12/14 10:19:18;;;;;;;5.68;3.70;;;4.30;99.90;;;;;;4891755;29;20110;-74
2023/12/14 10:21:46;;;;;;;5.10;3.63;;;4.50;99.90;;;;;;4890675;29;20039;-75
2023/12/14 10:24:13;;;;;;;6.03;3.63;;;4.60;99.90;;;;;;4892326;29;20035;-75
2023/12/14 10:26:39;;;;;;;5.43;3.30;;;4.60;99.90;;;;;;4894727;29;20061;-74
2023/12/14 10:29:04;;;;;;;5.05;2.45;;;4.50;99.90;;;;;;4894852;29;20530;-72
2023/12/14 10:31:31;;;;;;;5.10;2.65;;;4.40;99.90;;;;;;4894885;29;20109;-75
2023/12/14 10:33:56;;;;;;;5.55;3.17;;;4.50;99.90;;;;;;4892964;29;20040;-77
2023/12/14 10:36:25;;;;;;;6.13;3.45;;;4.60;99.90;;;;;;4892803;29;20048;-75
2023/12/14 10:38:57;;;;;;;5.70;3.17;;;4.80;99.90;;;;;;4893295;29;20463;-75
2023/12/14 10:41:24;;;;;;;4.53;2.75;;;4.90;99.90;;;;;;4893731;29;20028;-77
2023/12/14 10:43:53;;;;;;;5.88;2.72;;;4.80;99.90;;;;;;4893116;29;20044;-77
2023/12/14 10:46:20;;;;;;;14.48;6.90;;;5.10;99.90;;;;;;4894836;29;20098;-75
2023/12/14 10:48:48;;;;;;;7.20;3.75;;;5.30;99.90;;;;;;4895319;29;20047;-75
2023/12/14 10:51:15;;;;;;;5.18;3.00;;;5.50;99.90;;;;;;4895154;29;20134;-76
2023/12/14 10:53:46;;;;;;;4.78;2.63;;;5.60;99.90;;;;;;4890889;29;20541;-75
2023/12/14 10:56:13;;;;;;;4.82;3.08;;;5.70;99.90;;;;;;4892491;29;20047;-75
2023/12/14 10:58:51;;;;;;;5.35;3.38;;;5.80;99.90;;;;;;4892482;29;20039;-75
2023/12/14 11:01:19;;;;;;;6.93;4.50;;;6.00;99.90;;;;;;4882140;29;20381;-75
2023/12/14 11:03:47;;;;;;;8.02;4.32;;;6.10;99.90;;;;;;4894542;29;21024;-75
2023/12/14 11:06:31;;;;;;;7.97;5.22;;;6.20;99.90;;;;;;4891482;29;20040;-74
2023/12/14 11:09:06;;;;;;;7.20;4.18;;;6.30;99.90;;;;;;4889371;29;20838;-76
2023/12/14 11:11:52;;;;;;;6.38;3.67;;;6.30;99.90;;;;;;4892399;29;20031;-76
2023/12/14 11:14:19;;;;;;;14.50;8.02;;;6.50;99.90;;;;;;4875596;29;20123;-76
2023/12/14 11:16:48;;;;;;;31.48;17.98;;;6.60;99.90;;;;;;4893158;29;20040;-76
2023/12/14 11:19:28;;;;;;;23.88;12.68;;;6.70;99.90;;;;;;4892453;29;20056;-74
2023/12/14 11:21:57;;;;;;;11.70;7.03;;;6.80;99.90;;;;;;4892766;29;20068;-76
2023/12/14 11:24:27;;;;;;;11.20;4.65;;;6.80;99.90;;;;;;4892281;29;21227;-76
2023/12/14 11:26:53;;;;;;;9.27;5.80;;;6.90;99.90;;;;;;4900287;29;20695;-77
2023/12/14 11:29:20;;;;;;;8.20;5.28;;;7.20;99.90;;;;;;4895697;29;20580;-77
2023/12/14 11:31:46;;;;;;;8.30;4.47;;;7.30;99.90;;;;;;4892633;29;20047;-75
2023/12/14 11:34:12;;;;;;;13.90;10.50;;;7.30;99.90;;;;;;4894416;29;20044;-76
2023/12/14 11:36:41;;;;;;;9.48;6.18;;;7.50;99.90;;;;;;4896013;29;20044;-77
2023/12/14 11:39:09;;;;;;;6.63;4.90;;;7.70;99.90;;;;;;4895375;29;20627;-77
2023/12/14 11:41:35;;;;;;;6.20;3.60;;;7.80;99.90;;;;;;4896051;29;20032;-76
2023/12/14 11:44:01;;;;;;;5.60;3.50;;;7.70;99.90;;;;;;4895944;29;20036;-76
2023/12/14 11:46:29;;;;;;;5.85;2.92;;;7.80;99.90;;;;;;4894841;29;20040;-78
2023/12/14 11:48:56;;;;;;;5.65;3.08;;;7.80;99.90;;;;;;4893768;29;20043;-75
2023/12/14 11:51:23;;;;;;;4.18;2.60;;;7.80;99.90;;;;;;4897058;29;20147;-76
2023/12/14 11:53:49;;;;;;;4.97;2.92;;;7.90;99.90;;;;;;4893547;29;20474;-75
2023/12/14 11:56:18;;;;;;;5.90;2.42;;;7.90;99.90;;;;;;4896148;29;20044;-75
2023/12/14 11:58:45;;;;;;;4.05;2.30;;;8.10;99.90;;;;;;4895936;29;20051;-75
2023/12/14 12:01:18;;;;;;;5.50;2.80;;;8.20;99.90;;;;;;4896406;29;20040;-76
2023/12/14 12:03:44;;;;;;;4.65;2.50;;;8.40;99.90;;;;;;4895073;29;20752;-76
2023/12/14 12:06:30;;;;;;;4.95;2.53;;;8.40;99.90;;;;;;4895646;29;20044;-76
2023/12/14 12:08:56;;;;;;;5.50;2.63;;;8.30;99.90;;;;;;4895016;29;20028;-76
2023/12/14 12:11:23;;;;;;;4.75;2.00;;;8.30;99.90;;;;;;4893990;29;20051;-76
2023/12/14 12:13:56;;;;;;;6.57;3.78;;;8.40;99.90;;;;;;4894881;29;20048;-77
2023/12/14 12:16:22;;;;;;;35.67;30.38;;;8.60;99.90;;;;;;4894790;29;20040;-77
2023/12/14 12:18:50;;;;;;;54.92;42.25;;;8.80;99.90;;;;;;4896255;29;20060;-75
2023/12/14 12:21:16;;;;;;;42.67;32.22;;;8.80;99.90;;;;;;4896580;29;20035;-76
2023/12/14 12:23:42;;;;;;;183.30;91.28;;;8.90;99.90;;;;;;4892492;29;20099;-76
2023/12/14 12:26:08;;;;;;;120.07;73.28;;;8.90;99.90;;;;;;4898556;29;20091;-75
2023/12/14 12:28:33;;;;;;;82.38;50.55;;;8.80;99.90;;;;;;4894494;29;20107;-76
2023/12/14 12:31:00;;;;;;;44.13;30.17;;;8.70;99.90;;;;;;4896772;29;20042;-76
2023/12/14 12:33:26;;;;;;;9.15;6.45;;;8.80;99.90;;;;;;4897811;29;20071;-76
2023/12/14 12:35:52;;;;;;;5.20;2.63;;;8.80;99.90;;;;;;4896964;29;20036;-76
2023/12/14 12:38:18;;;;;;;3.65;2.10;;;8.80;99.90;;;;;;4894274;29;20044;-75
2023/12/14 12:40:44;;;;;;;5.13;2.75;;;8.80;99.90;;;;;;4895139;29;20110;-76
2023/12/14 12:43:10;;;;;;;5.45;2.83;;;8.70;99.90;;;;;;4894920;29;20605;-78
2023/12/14 12:45:37;;;;;;;15.13;10.65;;;8.70;99.90;;;;;;4895027;29;20043;-76
2023/12/14 12:48:04;;;;;;;12.85;9.48;;;8.80;99.90;;;;;;4894510;29;20583;-75
2023/12/14 12:50:30;;;;;;;14.35;7.65;;;9.00;99.90;;;;;;4892868;29;20651;-75
2023/12/14 12:52:56;;;;;;;24.48;19.52;;;9.10;99.90;;;;;;4894130;29;20040;-75